Time;durP1;ratioP1;P1;durP2;ratioP2;P2;SDS_P1;SDS_P2;PMS_P1;PMS_P2;Temp;Humidity;BMP_temperature;BMP_pressure;BME280_temperature;BME280_humidity;BME280_pressure;Samples;Min_cycle;Max_cycle;Signal;HPM_P1;HPM_P2
2021/07/08 00:01:10;;;;;;;4.45;3.42;;;19.20;69.60;;;;;;4931538;29;20491;-76
2021/07/08 00:03:36;;;;;;;4.65;3.90;;;19.20;69.60;;;;;;4930278;29;20024;-75
2021/07/08 00:06:02;;;;;;;4.13;3.60;;;19.10;69.50;;;;;;4931966;29;20036;-75
2021/07/08 00:08:28;;;;;;;3.45;3.15;;;19.10;69.60;;;;;;4931256;29;20087;-75
2021/07/08 00:10:55;;;;;;;4.13;3.72;;;19.00;69.60;;;;;;4931666;29;20502;-74
2021/07/08 00:13:24;;;;;;;3.83;3.42;;;19.00;69.80;;;;;;4931114;29;20247;-75
2021/07/08 00:15:51;;;;;;;4.40;4.00;;;19.00;69.80;;;;;;4931226;29;20114;-74
2021/07/08 00:18:17;;;;;;;3.90;3.60;;;18.90;69.70;;;;;;4930825;29;20042;-74
2021/07/08 00:20:46;;;;;;;3.53;3.22;;;18.90;69.90;;;;;;4931552;29;20379;-76
2021/07/08 00:23:13;;;;;;;4.00;3.40;;;18.90;70.00;;;;;;4931081;29;20098;-74
2021/07/08 00:25:39;;;;;;;4.88;3.67;;;18.90;70.10;;;;;;4945464;29;20028;-77
2021/07/08 00:28:12;;;;;;;4.45;3.92;;;18.80;70.00;;;;;;4930113;29;20039;-76
2021/07/08 00:30:44;;;;;;;4.30;3.90;;;18.80;70.10;;;;;;4926185;29;20028;-77
2021/07/08 00:33:10;;;;;;;4.55;3.72;;;18.80;70.10;;;;;;4911912;29;20044;-74
2021/07/08 00:35:37;;;;;;;3.90;3.60;;;18.80;70.10;;;;;;4912343;29;20047;-74
2021/07/08 00:38:04;;;;;;;4.75;3.70;;;18.70;70.00;;;;;;4913523;29;20459;-74
2021/07/08 00:40:30;;;;;;;4.50;3.63;;;18.70;70.10;;;;;;4931222;29;20089;-75
2021/07/08 00:42:57;;;;;;;4.22;3.85;;;18.70;70.10;;;;;;4931176;29;20059;-75
2021/07/08 00:45:24;;;;;;;4.68;3.53;;;18.70;70.20;;;;;;4945702;29;20039;-76
2021/07/08 00:47:52;;;;;;;4.32;3.92;;;18.70;70.20;;;;;;4930995;29;20050;-77
2021/07/08 00:50:24;;;;;;;4.68;4.20;;;18.70;70.30;;;;;;4929434;29;20290;-77
2021/07/08 00:52:50;;;;;;;4.63;4.30;;;18.60;70.20;;;;;;4929665;29;20052;-78
2021/07/08 00:55:16;;;;;;;4.30;3.88;;;18.60;70.60;;;;;;4928534;29;20040;-75
2021/07/08 00:57:53;;;;;;;4.05;3.75;;;18.60;70.30;;;;;;4910755;29;20020;-79
2021/07/08 01:00:27;;;;;;;4.03;3.72;;;18.50;70.20;;;;;;4911304;29;20035;-74
2021/07/08 01:02:54;;;;;;;4.40;4.00;;;18.50;70.30;;;;;;4911774;29;20479;-77
2021/07/08 01:05:23;;;;;;;4.32;3.92;;;18.50;70.30;;;;;;4930526;29;20119;-77
2021/07/08 01:07:50;;;;;;;4.50;4.10;;;18.50;70.50;;;;;;4944965;29;20038;-78
2021/07/08 01:10:16;;;;;;;4.43;4.03;;;18.40;70.30;;;;;;4929598;29;20035;-75
2021/07/08 01:12:42;;;;;;;4.75;4.28;;;18.40;70.40;;;;;;4930374;29;20059;-77
2021/07/08 01:15:10;;;;;;;4.88;4.47;;;18.40;70.50;;;;;;4930206;29;20131;-76
2021/07/08 01:17:37;;;;;;;4.18;3.78;;;18.40;70.60;;;;;;4929720;29;20039;-77
2021/07/08 01:20:05;;;;;;;4.30;3.90;;;18.40;70.60;;;;;;4929988;29;20031;-78
2021/07/08 01:22:31;;;;;;;4.90;4.47;;;18.30;70.50;;;;;;4929588;29;20039;-78
2021/07/08 01:24:57;;;;;;;4.28;3.97;;;18.30;70.60;;;;;;4929742;29;20476;-79
2021/07/08 01:27:23;;;;;;;4.60;4.18;;;18.30;70.70;;;;;;4929009;29;20386;-78
2021/07/08 01:29:50;;;;;;;4.35;3.95;;;18.30;70.80;;;;;;4929597;29;20387;-79
2021/07/08 01:32:16;;;;;;;4.38;3.97;;;18.30;70.90;;;;;;4913408;29;20151;-75
2021/07/08 01:34:41;;;;;;;6.30;3.75;;;18.30;70.90;;;;;;4911782;29;20135;-76
2021/07/08 01:37:07;;;;;;;4.03;3.70;;;18.30;71.00;;;;;;4913529;29;20040;-75
2021/07/08 01:39:33;;;;;;;4.35;3.95;;;18.20;70.80;;;;;;4931479;29;20031;-77
2021/07/08 01:41:59;;;;;;;4.53;4.10;;;18.20;70.90;;;;;;4931566;29;20373;-81
2021/07/08 01:44:25;;;;;;;4.93;4.40;;;18.20;70.90;;;;;;4930936;29;20032;-74
2021/07/08 01:46:51;;;;;;;3.67;3.38;;;18.20;71.00;;;;;;4918630;29;20072;-81
2021/07/08 01:49:17;;;;;;;4.40;4.00;;;18.20;71.10;;;;;;4914208;29;20039;-74
2021/07/08 01:51:45;;;;;;;4.90;4.28;;;18.20;71.00;;;;;;4913483;29;20032;-78
2021/07/08 01:54:11;;;;;;;4.28;3.88;;;18.10;70.90;;;;;;4929888;29;20131;-78
2021/07/08 01:56:38;;;;;;;4.93;4.53;;;18.10;71.00;;;;;;4914733;29;20036;-76
2021/07/08 01:59:05;;;;;;;5.00;4.50;;;18.10;71.10;;;;;;4914840;29;20028;-78
2021/07/08 02:01:31;;;;;;;3.78;3.47;;;18.10;71.10;;;;;;4915445;29;20032;-80
2021/07/08 02:03:57;;;;;;;4.07;3.78;;;18.10;71.20;;;;;;4915602;29;20032;-80
2021/07/08 02:06:23;;;;;;;4.70;4.40;;;18.10;71.20;;;;;;4913360;29;20043;-79
2021/07/08 02:08:49;;;;;;;5.05;4.55;;;18.00;71.10;;;;;;4915296;29;20111;-80
2021/07/08 02:11:16;;;;;;;4.15;3.78;;;18.00;71.20;;;;;;4914463;29;20448;-78
2021/07/08 02:13:42;;;;;;;3.97;3.67;;;18.00;71.20;;;;;;4914434;29;20492;-77
2021/07/08 02:16:10;;;;;;;4.75;4.35;;;18.00;71.20;;;;;;4915060;29;20402;-79
2021/07/08 02:18:37;;;;;;;4.25;3.85;;;18.00;71.30;;;;;;4914681;29;20087;-76
2021/07/08 02:21:04;;;;;;;4.88;4.38;;;18.00;71.40;;;;;;4915515;29;20033;-76
2021/07/08 02:23:31;;;;;;;4.32;4.03;;;17.90;71.30;;;;;;4914863;29;20028;-81
2021/07/08 02:25:58;;;;;;;5.07;4.43;;;18.00;71.50;;;;;;4913849;29;20036;-74
2021/07/08 02:28:24;;;;;;;4.40;4.00;;;18.00;71.50;;;;;;4915512;29;20032;-81
2021/07/08 02:30:51;;;;;;;4.05;3.75;;;18.00;71.60;;;;;;4914807;29;20031;-80
2021/07/08 02:33:17;;;;;;;4.85;4.40;;;17.90;71.50;;;;;;4914832;29;20357;-78
2021/07/08 02:35:43;;;;;;;5.05;4.45;;;18.00;71.70;;;;;;4928782;29;20036;-82
2021/07/08 02:38:09;;;;;;;4.90;4.40;;;17.90;71.60;;;;;;4915821;29;20028;-78
2021/07/08 02:40:38;;;;;;;4.32;3.92;;;17.90;71.70;;;;;;4918760;29;20036;-76
2021/07/08 02:43:07;;;;;;;4.60;4.20;;;17.90;71.70;;;;;;4917090;29;20508;-78
2021/07/08 02:45:37;;;;;;;4.57;4.18;;;17.90;71.60;;;;;;4918875;29;20032;-79
2021/07/08 02:48:06;;;;;;;4.72;4.32;;;17.90;71.70;;;;;;4918787;29;20025;-76
2021/07/08 02:50:33;;;;;;;4.53;4.18;;;17.90;71.70;;;;;;4933294;29;20082;-79
2021/07/08 02:52:59;;;;;;;5.03;4.47;;;17.90;71.70;;;;;;4918131;29;20063;-79
2021/07/08 02:55:26;;;;;;;5.15;4.68;;;18.00;71.80;;;;;;4918098;29;20032;-80
2021/07/08 02:57:53;;;;;;;4.43;4.10;;;17.90;71.70;;;;;;4918657;29;20476;-77
2021/07/08 03:00:22;;;;;;;5.68;4.15;;;17.90;71.70;;;;;;4918522;29;20064;-80
2021/07/08 03:02:48;;;;;;;4.53;4.05;;;18.00;71.90;;;;;;4918728;29;20376;-77
2021/07/08 03:05:15;;;;;;;5.70;4.45;;;18.00;71.90;;;;;;4918078;29;20032;-78
2021/07/08 03:07:41;;;;;;;5.43;4.80;;;17.90;71.70;;;;;;4918102;29;20466;-75
2021/07/08 03:10:09;;;;;;;4.72;4.32;;;17.90;71.70;;;;;;4917350;29;20070;-74
2021/07/08 03:12:35;;;;;;;4.90;4.38;;;17.90;71.80;;;;;;4917791;29;20056;-74
2021/07/08 03:15:02;;;;;;;4.63;4.20;;;17.90;71.80;;;;;;4917526;29;20063;-76
2021/07/08 03:17:28;;;;;;;4.78;4.47;;;17.90;71.80;;;;;;4917755;29;20024;-76
2021/07/08 03:19:54;;;;;;;4.90;4.07;;;17.90;71.90;;;;;;4916523;29;20047;-74
2021/07/08 03:22:20;;;;;;;5.97;4.72;;;17.90;71.90;;;;;;4917315;29;20339;-74
2021/07/08 03:24:46;;;;;;;5.10;4.70;;;17.90;72.00;;;;;;4917767;29;20044;-75
2021/07/08 03:27:12;;;;;;;5.57;4.10;;;17.90;72.00;;;;;;4915844;29;20420;-75
2021/07/08 03:29:38;;;;;;;6.38;4.38;;;17.90;72.10;;;;;;4917658;29;20506;-74
2021/07/08 03:32:04;;;;;;;5.88;4.60;;;17.90;72.10;;;;;;4917493;29;20118;-73
2021/07/08 03:34:30;;;;;;;5.07;4.68;;;17.90;72.10;;;;;;4917360;29;20040;-74
2021/07/08 03:36:56;;;;;;;4.78;4.38;;;17.90;72.10;;;;;;4916271;29;20028;-74
2021/07/08 03:39:22;;;;;;;4.88;4.43;;;17.90;72.10;;;;;;4917254;29;20032;-74
2021/07/08 03:41:48;;;;;;;7.10;4.55;;;17.90;72.10;;;;;;4917475;29;20031;-73
2021/07/08 03:44:14;;;;;;;5.18;4.18;;;17.90;72.20;;;;;;4916576;29;20115;-73
2021/07/08 03:46:40;;;;;;;5.38;4.93;;;17.90;72.30;;;;;;4917277;29;20035;-76
2021/07/08 03:49:06;;;;;;;5.10;4.60;;;17.90;72.30;;;;;;4916772;29;20092;-78
2021/07/08 03:51:32;;;;;;;4.72;4.32;;;17.90;72.30;;;;;;4914833;29;20035;-76
2021/07/08 03:53:58;;;;;;;5.47;5.05;;;17.90;72.30;;;;;;4917203;29;20403;-73
2021/07/08 03:56:24;;;;;;;4.57;4.22;;;17.90;72.30;;;;;;4916099;29;20538;-73
2021/07/08 03:58:50;;;;;;;4.93;4.53;;;17.90;72.30;;;;;;4931802;29;20032;-76
2021/07/08 04:01:16;;;;;;;5.15;4.65;;;17.90;72.30;;;;;;4916832;29;20020;-73
2021/07/08 04:03:42;;;;;;;5.80;4.72;;;17.90;72.40;;;;;;4916817;29;20055;-74
2021/07/08 04:06:08;;;;;;;5.05;4.50;;;17.90;72.40;;;;;;4916776;29;20035;-73
2021/07/08 04:08:34;;;;;;;4.20;3.80;;;17.90;72.40;;;;;;4916875;29;20032;-76
2021/07/08 04:11:00;;;;;;;4.38;4.07;;;17.90;72.40;;;;;;4915428;29;20052;-74
2021/07/08 04:13:27;;;;;;;5.15;4.55;;;17.80;72.20;;;;;;4916350;29;20044;-73
2021/07/08 04:15:53;;;;;;;5.38;4.88;;;17.90;72.40;;;;;;4916662;29;20582;-74
2021/07/08 04:18:20;;;;;;;4.40;4.10;;;17.80;72.20;;;;;;4931301;29;20071;-75
2021/07/08 04:20:47;;;;;;;5.05;4.65;;;17.80;72.30;;;;;;4916323;29;20472;-74
2021/07/08 04:23:15;;;;;;;6.88;5.13;;;17.80;72.30;;;;;;4916471;29;20032;-74
2021/07/08 04:25:41;;;;;;;5.00;4.60;;;17.80;72.30;;;;;;4915890;29;20129;-74
2021/07/08 04:28:08;;;;;;;5.47;4.95;;;17.80;72.30;;;;;;4915415;29;20035;-74
2021/07/08 04:30:35;;;;;;;5.30;4.80;;;17.80;72.30;;;;;;4916473;29;20468;-74
2021/07/08 04:33:01;;;;;;;5.28;4.78;;;17.80;72.30;;;;;;4916040;29;20407;-76
2021/07/08 04:35:32;;;;;;;4.80;4.40;;;17.80;72.30;;;;;;4916071;29;20028;-75
2021/07/08 04:37:59;;;;;;;5.25;4.78;;;17.80;72.40;;;;;;4916050;29;20083;-78
2021/07/08 04:40:26;;;;;;;5.38;4.85;;;17.80;72.40;;;;;;4916170;29;20095;-73
2021/07/08 04:42:52;;;;;;;8.02;4.93;;;17.80;72.40;;;;;;4916408;29;20028;-75
2021/07/08 04:45:19;;;;;;;5.40;4.75;;;17.80;72.40;;;;;;4916055;29;20326;-74
2021/07/08 04:47:47;;;;;;;4.30;3.90;;;17.80;72.50;;;;;;4912720;29;20024;-74
2021/07/08 04:50:15;;;;;;;4.85;4.35;;;17.80;73.00;;;;;;4912945;29;20051;-75
2021/07/08 04:52:42;;;;;;;4.75;4.35;;;17.80;72.50;;;;;;4913158;29;20571;-74
2021/07/08 04:55:10;;;;;;;5.15;4.68;;;17.80;72.50;;;;;;4912623;29;20040;-73
2021/07/08 04:57:36;;;;;;;6.00;4.75;;;17.80;72.40;;;;;;4915924;29;20027;-74
2021/07/08 05:00:09;;;;;;;5.35;4.85;;;17.80;72.40;;;;;;4932264;29;20059;-73
2021/07/08 05:02:39;;;;;;;5.00;4.60;;;17.80;72.50;;;;;;4925218;29;20175;-73
2021/07/08 05:05:10;;;;;;;4.82;4.43;;;17.90;72.60;;;;;;4909193;29;20389;-74
2021/07/08 05:07:37;;;;;;;5.40;5.00;;;17.80;72.40;;;;;;4915443;29;20171;-79
2021/07/08 05:10:06;;;;;;;5.22;4.82;;;17.90;72.50;;;;;;4929808;29;20032;-73
2021/07/08 05:12:32;;;;;;;5.20;4.80;;;17.90;72.50;;;;;;4927554;29;20082;-74
2021/07/08 05:14:58;;;;;;;4.70;4.28;;;17.90;72.50;;;;;;4910961;29;20048;-73
2021/07/08 05:17:25;;;;;;;5.22;4.72;;;17.90;72.50;;;;;;4913205;29;20040;-73
2021/07/08 05:19:51;;;;;;;4.63;4.22;;;17.90;72.50;;;;;;4928979;29;20040;-76
2021/07/08 05:22:20;;;;;;;4.88;4.43;;;17.90;72.40;;;;;;4930159;29;20118;-75
2021/07/08 05:24:47;;;;;;;5.60;5.03;;;17.90;72.40;;;;;;4930078;29;20039;-77
2021/07/08 05:27:16;;;;;;;5.05;4.55;;;18.00;72.60;;;;;;4929187;29;20176;-77
2021/07/08 05:29:47;;;;;;;5.20;4.70;;;18.00;72.50;;;;;;4929014;29;20490;-79
2021/07/08 05:32:13;;;;;;;4.18;3.88;;;18.00;72.50;;;;;;4929942;29;20032;-78
2021/07/08 05:34:42;;;;;;;6.57;4.95;;;18.00;72.50;;;;;;4911925;29;20036;-76
2021/07/08 05:37:09;;;;;;;5.82;4.95;;;18.10;72.60;;;;;;4910777;29;20464;-79
2021/07/08 05:39:35;;;;;;;5.22;4.72;;;18.10;72.60;;;;;;4929341;29;20495;-75
2021/07/08 05:42:02;;;;;;;5.15;4.65;;;18.10;72.50;;;;;;4944364;29;20479;-75
2021/07/08 05:44:28;;;;;;;4.95;4.55;;;18.10;72.50;;;;;;4929079;29;20087;-74
2021/07/08 05:46:54;;;;;;;5.22;4.78;;;18.20;72.60;;;;;;4929301;29;20071;-74
2021/07/08 05:49:20;;;;;;;4.90;4.50;;;18.20;72.70;;;;;;4928962;29;20491;-73
2021/07/08 05:51:46;;;;;;;5.22;4.82;;;18.30;72.70;;;;;;4928276;29;20028;-74
2021/07/08 05:54:12;;;;;;;5.40;4.90;;;18.30;72.60;;;;;;4929320;29;20099;-76
2021/07/08 05:56:38;;;;;;;5.15;4.72;;;18.40;72.80;;;;;;4927530;29;20708;-75
2021/07/08 05:59:03;;;;;;;4.97;4.57;;;18.40;72.70;;;;;;4928084;29;20031;-75
2021/07/08 06:01:29;;;;;;;4.97;4.57;;;18.50;72.80;;;;;;4929264;29;20056;-74
2021/07/08 06:03:55;;;;;;;4.82;4.43;;;18.50;72.80;;;;;;4927541;29;20035;-73
2021/07/08 06:06:21;;;;;;;5.25;4.75;;;18.60;72.90;;;;;;4929058;29;20487;-73
2021/07/08 06:08:47;;;;;;;5.13;4.70;;;18.60;72.80;;;;;;4928731;29;20110;-74
2021/07/08 06:11:17;;;;;;;5.18;4.78;;;18.70;72.90;;;;;;4926885;29;20279;-74
2021/07/08 06:13:43;;;;;;;5.97;4.57;;;18.70;72.90;;;;;;4927376;29;20032;-75
2021/07/08 06:16:09;;;;;;;5.32;4.78;;;18.80;73.00;;;;;;4943770;29;20248;-74
2021/07/08 06:18:36;;;;;;;5.38;4.88;;;18.90;73.10;;;;;;4922029;29;20024;-74
2021/07/08 06:21:03;;;;;;;4.97;4.47;;;19.00;73.20;;;;;;4928743;29;20039;-74
2021/07/08 06:23:30;;;;;;;5.80;4.95;;;19.00;73.10;;;;;;4928422;29;20032;-73
2021/07/08 06:25:57;;;;;;;5.90;5.28;;;19.10;73.20;;;;;;4928074;29;20063;-73
2021/07/08 06:28:23;;;;;;;5.50;5.00;;;19.10;73.00;;;;;;4921255;29;20038;-75
2021/07/08 06:30:49;;;;;;;4.82;4.53;;;19.20;73.20;;;;;;4910775;29;20369;-73
2021/07/08 06:33:15;;;;;;;4.50;4.10;;;19.20;73.10;;;;;;4912881;29;20395;-74
2021/07/08 06:35:42;;;;;;;5.25;4.75;;;19.30;73.20;;;;;;4927966;29;20039;-74
2021/07/08 06:38:08;;;;;;;5.03;4.63;;;19.30;73.10;;;;;;4927004;29;20032;-73
2021/07/08 06:40:35;;;;;;;5.18;4.68;;;19.30;73.10;;;;;;4926905;29;20039;-72
2021/07/08 06:43:01;;;;;;;5.18;4.78;;;19.40;73.30;;;;;;4927794;29;20031;-73
2021/07/08 06:45:28;;;;;;;5.85;4.40;;;19.40;73.20;;;;;;4928566;29;20479;-73
2021/07/08 06:48:04;;;;;;;5.47;4.97;;;19.40;73.10;;;;;;4923364;29;20024;-73
2021/07/08 06:50:34;;;;;;;5.57;5.07;;;19.50;73.30;;;;;;4909625;29;20039;-72
2021/07/08 06:53:01;;;;;;;7.60;5.70;;;19.50;73.30;;;;;;4913747;29;20498;-73
2021/07/08 06:55:27;;;;;;;5.63;5.13;;;19.50;73.20;;;;;;4921734;29;20119;-73
2021/07/08 06:57:53;;;;;;;5.95;4.88;;;19.60;73.40;;;;;;4913719;29;20059;-73
2021/07/08 07:00:27;;;;;;;5.82;5.13;;;19.70;73.50;;;;;;4928369;29;20042;-73
2021/07/08 07:02:55;;;;;;;5.00;4.60;;;19.80;73.70;;;;;;4928145;29;20050;-74
2021/07/08 07:05:22;;;;;;;5.18;4.78;;;19.90;73.70;;;;;;4928987;29;20058;-74
2021/07/08 07:07:49;;;;;;;5.88;5.38;;;20.10;74.20;;;;;;4942832;29;20042;-73
2021/07/08 07:10:16;;;;;;;5.60;5.10;;;20.40;74.70;;;;;;4927988;29;20036;-74
2021/07/08 07:12:44;;;;;;;5.85;5.05;;;20.80;75.20;;;;;;4925761;29;20058;-74
2021/07/08 07:15:11;;;;;;;4.88;4.47;;;21.10;75.30;;;;;;4909400;29;20385;-73
2021/07/08 07:17:38;;;;;;;5.13;4.72;;;21.50;75.30;;;;;;4912403;29;20035;-76
2021/07/08 07:20:09;;;;;;;5.10;4.70;;;21.80;75.30;;;;;;4926347;29;20036;-73
2021/07/08 07:22:36;;;;;;;4.97;4.55;;;22.10;75.30;;;;;;4928338;29;20040;-74
2021/07/08 07:25:07;;;;;;;5.10;4.60;;;22.30;75.00;;;;;;4928610;29;20129;-73
2021/07/08 07:27:33;;;;;;;5.00;4.50;;;22.50;75.20;;;;;;4931004;29;20083;-73
2021/07/08 07:30:02;;;;;;;5.13;4.63;;;22.90;75.70;;;;;;4930052;29;20444;-73
2021/07/08 07:32:30;;;;;;;4.25;3.85;;;23.30;75.80;;;;;;4930546;29;20046;-74
2021/07/08 07:34:56;;;;;;;5.22;4.57;;;23.60;75.50;;;;;;4931195;29;20052;-74
2021/07/08 07:37:23;;;;;;;4.20;3.88;;;23.80;75.10;;;;;;4931730;29;20546;-76
2021/07/08 07:39:48;;;;;;;4.38;4.00;;;23.90;74.90;;;;;;4929951;29;20509;-72
2021/07/08 07:42:15;;;;;;;4.82;4.43;;;24.00;74.70;;;;;;4930921;29;20091;-73
2021/07/08 07:44:44;;;;;;;5.22;4.70;;;24.10;74.60;;;;;;4931597;29;20484;-73
2021/07/08 07:47:17;;;;;;;5.32;4.85;;;24.10;74.60;;;;;;4931542;29;20036;-73
2021/07/08 07:49:43;;;;;;;5.82;4.03;;;24.40;75.20;;;;;;4930994;29;20115;-74
2021/07/08 07:52:12;;;;;;;5.35;4.00;;;24.90;75.60;;;;;;4931438;29;20503;-73
2021/07/08 07:54:39;;;;;;;4.90;4.50;;;25.20;74.80;;;;;;4931127;29;20071;-74
2021/07/08 07:57:06;;;;;;;5.40;4.13;;;25.50;74.00;;;;;;4930728;29;20039;-74
2021/07/08 07:59:32;;;;;;;4.03;3.72;;;25.70;73.60;;;;;;4930279;29;20066;-74
2021/07/08 08:01:58;;;;;;;5.10;4.63;;;26.00;73.40;;;;;;4945453;29;20178;-73
2021/07/08 08:04:29;;;;;;;6.55;4.78;;;26.30;72.80;;;;;;4930971;29;20046;-73
2021/07/08 08:09:41;;;;;;;4.75;4.35;;;26.50;71.70;;;;;;4912156;29;20459;-73
2021/07/08 08:12:07;;;;;;;5.28;4.43;;;26.50;71.50;;;;;;4909816;29;20040;-74
2021/07/08 08:14:34;;;;;;;5.05;4.57;;;26.40;71.40;;;;;;4926347;29;20051;-73
2021/07/08 08:17:00;;;;;;;5.72;5.13;;;26.60;71.70;;;;;;4930895;29;20058;-73
2021/07/08 08:19:26;;;;;;;5.85;5.13;;;27.20;71.30;;;;;;4930029;29;20032;-73
2021/07/08 08:21:52;;;;;;;6.15;4.88;;;27.90;70.10;;;;;;4931225;29;20606;-72
2021/07/08 08:24:18;;;;;;;5.05;4.55;;;28.50;68.60;;;;;;4930466;29;20502;-73
2021/07/08 08:26:50;;;;;;;5.10;4.70;;;28.80;67.60;;;;;;4928642;29;20039;-72
2021/07/08 08:29:16;;;;;;;5.82;5.32;;;28.80;67.20;;;;;;4930425;29;20051;-72
2021/07/08 08:31:42;;;;;;;6.03;4.88;;;28.60;67.10;;;;;;4915618;29;20032;-72
2021/07/08 08:34:08;;;;;;;5.68;5.28;;;28.30;67.30;;;;;;4911187;29;20044;-72
2021/07/08 08:36:34;;;;;;;6.05;5.35;;;28.10;67.50;;;;;;4911397;29;20434;-74
2021/07/08 08:39:00;;;;;;;5.45;4.95;;;27.80;67.80;;;;;;4925591;29;20379;-73
2021/07/08 08:41:26;;;;;;;5.90;5.30;;;27.70;68.20;;;;;;4911438;29;20028;-72
2021/07/08 08:43:52;;;;;;;5.82;5.22;;;27.50;68.40;;;;;;4921463;29;20545;-72
2021/07/08 08:46:18;;;;;;;5.18;4.70;;;27.30;68.50;;;;;;4927681;29;20335;-73
2021/07/08 08:48:44;;;;;;;5.80;5.30;;;27.30;68.80;;;;;;4930037;29;20103;-73
2021/07/08 08:51:11;;;;;;;5.43;4.90;;;27.20;68.70;;;;;;4929560;29;20024;-73
2021/07/08 08:53:37;;;;;;;5.30;4.78;;;27.20;68.80;;;;;;4929199;29;20047;-73
2021/07/08 08:56:03;;;;;;;5.50;4.93;;;27.20;68.80;;;;;;4930328;29;20039;-73
2021/07/08 08:58:29;;;;;;;5.90;4.97;;;27.20;68.70;;;;;;4929825;29;20114;-73
2021/07/08 09:00:56;;;;;;;5.65;5.05;;;27.30;68.50;;;;;;4929736;29;20114;-73
2021/07/08 09:03:31;;;;;;;6.18;5.15;;;27.50;68.20;;;;;;4930303;29;20046;-72
2021/07/08 09:06:04;;;;;;;5.30;4.80;;;27.50;67.70;;;;;;4930392;29;20497;-72
2021/07/08 09:08:30;;;;;;;;;;;27.50;67.60;;;;;;4929709;29;20087;-73
2021/07/08 09:11:02;;;;;;;4.72;4.22;;;27.50;67.80;;;;;;4929649;29;19914;-74
2021/07/08 09:13:43;;;;;;;5.30;4.80;;;27.50;67.80;;;;;;4928088;29;20273;-75
2021/07/08 09:16:31;;;;;;;5.50;5.00;;;27.50;67.70;;;;;;4912274;29;20087;-75
2021/07/08 09:19:00;;;;;;;5.22;4.72;;;27.50;67.70;;;;;;4918527;29;20424;-76
2021/07/08 09:21:27;;;;;;;5.82;5.10;;;27.40;67.70;;;;;;4929794;29;20032;-73
2021/07/08 09:24:05;;;;;;;4.65;4.25;;;27.40;67.70;;;;;;4928384;29;20477;-75
2021/07/08 09:26:32;;;;;;;6.25;5.40;;;27.40;67.80;;;;;;4925765;29;20047;-75
2021/07/08 09:29:03;;;;;;;6.25;4.90;;;27.40;67.80;;;;;;4920505;29;20489;-73
2021/07/08 09:31:29;;;;;;;5.82;4.50;;;27.60;67.70;;;;;;4908578;29;20031;-73
2021/07/08 09:33:55;;;;;;;9.20;4.50;;;27.80;67.50;;;;;;4921383;29;20054;-73
2021/07/08 09:36:21;;;;;;;6.20;4.50;;;27.90;67.20;;;;;;4928824;29;20125;-75
2021/07/08 09:38:48;;;;;;;4.25;3.85;;;28.00;67.00;;;;;;4929013;29;20160;-73
2021/07/08 09:41:25;;;;;;;4.50;4.10;;;28.10;66.90;;;;;;4930058;29;20023;-75
2021/07/08 09:43:51;;;;;;;5.95;4.50;;;28.20;66.50;;;;;;4923925;29;20094;-72
2021/07/08 09:46:34;;;;;;;6.97;4.43;;;28.20;65.70;;;;;;4908707;29;20232;-72
2021/07/08 09:49:08;;;;;;;6.68;4.35;;;28.20;65.30;;;;;;4922997;29;20028;-72
2021/07/08 09:51:35;;;;;;;4.70;3.92;;;28.20;65.20;;;;;;4928727;29;20506;-73
2021/07/08 09:54:12;;;;;;;4.45;4.05;;;28.30;65.30;;;;;;4928815;29;20316;-77
2021/07/08 09:56:53;;;;;;;4.85;4.25;;;28.40;65.20;;;;;;4929286;29;20024;-76
2021/07/08 09:59:21;;;;;;;4.53;4.13;;;28.40;65.00;;;;;;4910009;29;20043;-75
2021/07/08 10:01:58;;;;;;;4.20;3.80;;;28.40;65.00;;;;;;4908140;29;20079;-75
2021/07/08 10:04:25;;;;;;;4.43;4.03;;;28.40;65.00;;;;;;4922596;29;20121;-74
2021/07/08 10:06:53;;;;;;;5.05;4.35;;;28.30;65.10;;;;;;4921459;29;20907;-74
2021/07/08 10:09:19;;;;;;;4.38;3.97;;;28.30;65.20;;;;;;4925800;29;20035;-76
2021/07/08 10:11:49;;;;;;;4.88;4.38;;;28.50;65.30;;;;;;4928952;29;20382;-75
2021/07/08 10:14:19;;;;;;;4.43;4.03;;;28.60;65.00;;;;;;4928638;29;20039;-74
2021/07/08 10:16:54;;;;;;;4.53;4.00;;;28.90;64.90;;;;;;4922676;29;20055;-75
2021/07/08 10:19:22;;;;;;;4.28;3.88;;;29.00;64.60;;;;;;4925678;29;20510;-74
2021/07/08 10:21:50;;;;;;;4.63;4.03;;;29.20;64.40;;;;;;4923495;29;20028;-75
2021/07/08 10:24:17;;;;;;;4.57;3.85;;;29.40;64.20;;;;;;4920709;29;20033;-73
2021/07/08 10:26:46;;;;;;;4.20;3.80;;;29.60;63.90;;;;;;4905510;29;20246;-75
2021/07/08 10:29:13;;;;;;;5.43;4.05;;;29.80;63.60;;;;;;4925349;29;20499;-74
2021/07/08 10:31:41;;;;;;;4.28;3.78;;;29.90;63.30;;;;;;4909301;29;20305;-73
2021/07/08 10:34:11;;;;;;;4.53;3.97;;;30.10;63.30;;;;;;4918542;29;20491;-73
2021/07/08 10:36:40;;;;;;;4.07;3.78;;;30.30;63.00;;;;;;4927296;29;20035;-74
2021/07/08 10:39:09;;;;;;;4.63;3.85;;;30.50;62.70;;;;;;4943196;29;20093;-72
2021/07/08 10:41:35;;;;;;;4.40;4.00;;;30.70;62.40;;;;;;4928380;29;20357;-73
2021/07/08 10:44:01;;;;;;;4.43;4.00;;;30.80;62.20;;;;;;4928751;29;20259;-73
2021/07/08 10:46:38;;;;;;;4.13;3.80;;;31.00;62.00;;;;;;4928332;29;20039;-72
2021/07/08 10:49:12;;;;;;;5.40;4.00;;;31.10;61.70;;;;;;4928179;29;20027;-73
2021/07/08 10:51:40;;;;;;;4.15;3.75;;;31.20;61.50;;;;;;4928608;29;20094;-73
2021/07/08 10:54:26;;;;;;;6.20;4.70;;;31.30;61.30;;;;;;4928393;29;20050;-72
2021/07/08 10:56:57;;;;;;;6.65;4.55;;;31.30;61.40;;;;;;4927050;29;20091;-73
2021/07/08 10:59:35;;;;;;;4.47;4.07;;;31.30;61.40;;;;;;4928242;29;20035;-73
2021/07/08 11:02:01;;;;;;;5.03;4.45;;;31.40;61.30;;;;;;4930812;29;20660;-72
2021/07/08 11:04:48;;;;;;;4.75;4.07;;;31.50;61.20;;;;;;4930163;29;20036;-72
2021/07/08 11:07:20;;;;;;;5.55;3.60;;;31.70;60.90;;;;;;4912755;29;20032;-72
2021/07/08 11:10:05;;;;;;;3.63;3.22;;;31.90;60.80;;;;;;4925738;29;20046;-72
2021/07/08 11:12:34;;;;;;;4.38;3.78;;;32.00;60.50;;;;;;4931342;29;20055;-72
2021/07/08 11:15:01;;;;;;;3.75;3.10;;;32.20;60.30;;;;;;4930691;29;20484;-72
2021/07/08 11:17:40;;;;;;;4.38;3.22;;;32.40;60.10;;;;;;4931515;29;20115;-72
2021/07/08 11:20:25;;;;;;;3.97;3.58;;;32.60;59.70;;;;;;4914804;29;20047;-72
2021/07/08 11:22:51;;;;;;;3.85;3.47;;;32.80;59.40;;;;;;4930526;29;20040;-73
2021/07/08 11:25:17;;;;;;;3.33;3.00;;;33.00;59.20;;;;;;4930018;29;20028;-73
2021/07/08 11:27:45;;;;;;;4.82;3.30;;;33.20;59.20;;;;;;4928109;29;20372;-72
2021/07/08 11:30:14;;;;;;;3.35;3.05;;;33.40;58.60;;;;;;4931842;29;20032;-72
2021/07/08 11:33:03;;;;;;;3.55;3.25;;;33.50;58.20;;;;;;4932842;29;20472;-72
2021/07/08 11:38:18;;;;;;;3.25;2.95;;;33.90;57.90;;;;;;4931274;29;20055;-74
2021/07/08 11:40:47;;;;;;;3.28;2.90;;;34.00;57.50;;;;;;4931516;29;20028;-73
2021/07/08 11:43:16;;;;;;;3.53;3.22;;;34.10;57.30;;;;;;4945573;29;20411;-72
2021/07/08 11:45:43;;;;;;;3.22;2.53;;;34.30;57.20;;;;;;4931603;29;20115;-72
2021/07/08 11:48:09;;;;;;;2.97;2.75;;;34.30;57.10;;;;;;4930931;29;20042;-72
2021/07/08 11:50:37;;;;;;;3.55;2.53;;;34.40;57.00;;;;;;4931495;29;20515;-72
2021/07/08 11:53:23;;;;;;;3.80;2.60;;;34.40;56.80;;;;;;4929699;29;20523;-72
2021/07/08 11:55:53;;;;;;;3.17;2.88;;;34.60;56.80;;;;;;4945166;29;20048;-72
2021/07/08 11:58:30;;;;;;;6.13;2.50;;;34.70;56.60;;;;;;4945948;29;20035;-72
2021/07/08 12:01:00;;;;;;;2.75;2.38;;;34.80;56.40;;;;;;4927950;29;20534;-71
2021/07/08 12:03:32;;;;;;;3.08;2.80;;;34.90;56.20;;;;;;4912233;29;20079;-72
2021/07/08 12:06:05;;;;;;;3.38;3.08;;;34.90;56.20;;;;;;4911294;29;20563;-71
2021/07/08 12:08:32;;;;;;;3.55;3.05;;;35.00;56.20;;;;;;4920896;29;20038;-72
2021/07/08 12:11:17;;;;;;;2.33;2.13;;;35.20;56.10;;;;;;4930297;29;20055;-72
2021/07/08 12:13:53;;;;;;;2.90;2.67;;;35.20;55.80;;;;;;4930186;29;20040;-72
2021/07/08 12:16:32;;;;;;;3.17;2.55;;;35.10;55.80;;;;;;4930682;29;20043;-73
2021/07/08 12:19:00;;;;;;;3.05;2.25;;;35.10;56.00;;;;;;4931093;29;20118;-73
2021/07/08 12:21:26;;;;;;;3.10;2.70;;;35.10;56.10;;;;;;4930451;29;20518;-73
2021/07/08 12:23:55;;;;;;;3.15;2.85;;;35.20;56.10;;;;;;4929275;29;20027;-74
2021/07/08 12:26:25;;;;;;;6.40;2.90;;;35.30;55.90;;;;;;4915868;29;20043;-72
2021/07/08 12:29:08;;;;;;;2.72;2.53;;;35.40;55.70;;;;;;4923893;29;20548;-78
2021/07/08 12:31:48;;;;;;;3.13;2.83;;;35.50;55.60;;;;;;4930223;29;20495;-72
2021/07/08 12:34:15;;;;;;;4.05;2.50;;;35.70;55.50;;;;;;4928744;29;20040;-75
2021/07/08 12:36:41;;;;;;;2.90;2.45;;;35.80;55.30;;;;;;4944884;29;20063;-75
2021/07/08 12:39:07;;;;;;;4.55;3.03;;;35.90;55.10;;;;;;4929613;29;20031;-73
2021/07/08 12:41:34;;;;;;;2.83;2.28;;;36.00;55.00;;;;;;4930402;29;20039;-74
2021/07/08 12:44:10;;;;;;;3.25;2.47;;;36.00;54.90;;;;;;4930090;29;20024;-75
2021/07/08 12:46:36;;;;;;;3.78;2.58;;;36.00;54.80;;;;;;4928656;29;20035;-76
2021/07/08 12:49:03;;;;;;;3.55;2.60;;;36.00;54.90;;;;;;4916755;29;20487;-75
2021/07/08 12:51:29;;;;;;;2.40;2.13;;;36.10;54.80;;;;;;4911033;29;20028;-75
2021/07/08 12:53:55;;;;;;;2.78;2.35;;;36.20;54.60;;;;;;4919101;29;20031;-77
2021/07/08 12:56:23;;;;;;;2.50;2.30;;;36.30;54.40;;;;;;4928674;29;20488;-74
2021/07/08 12:58:57;;;;;;;2.47;2.28;;;36.40;54.20;;;;;;4928847;29;20055;-77